sensor_id;sensor_type;location;lat;lon;timestamp;pressure;altitude;pressure_sealevel;temperature;humidity
60371;BME280;48550;40.588;49.684;2024-03-06T00:00:11;101596.19;;;7.21;78.84
60371;BME280;48550;40.588;49.684;2024-03-06T00:02:37;101602.75;;;7.30;78.71
60371;BME280;48550;40.588;49.684;2024-03-06T00:05:03;101591.63;;;7.42;78.02
60371;BME280;48550;40.588;49.684;2024-03-06T00:07:30;101590.38;;;7.32;78.29
60371;BME280;48550;40.588;49.684;2024-03-06T00:09:56;101599.50;;;7.24;78.70
60371;BME280;48550;40.588;49.684;2024-03-06T00:12:21;101581.88;;;7.26;78.67
60371;BME280;48550;40.588;49.684;2024-03-06T00:14:47;101590.84;;;7.22;78.71
60371;BME280;48550;40.588;49.684;2024-03-06T00:17:13;101579.78;;;7.16;79.30
60371;BME280;48550;40.588;49.684;2024-03-06T00:19:39;101568.97;;;7.04;79.81
60371;BME280;48550;40.588;49.684;2024-03-06T00:22:04;101571.34;;;7.09;79.89
60371;BME280;48550;40.588;49.684;2024-03-06T00:24:31;101570.97;;;7.17;79.33
60371;BME280;48550;40.588;49.684;2024-03-06T00:26:57;101569.03;;;7.20;79.25
60371;BME280;48550;40.588;49.684;2024-03-06T00:29:23;101567.06;;;7.25;79.08
60371;BME280;48550;40.588;49.684;2024-03-06T00:31:49;101569.69;;;7.25;79.47
60371;BME280;48550;40.588;49.684;2024-03-06T00:34:15;101566.03;;;7.28;79.52
60371;BME280;48550;40.588;49.684;2024-03-06T00:36:42;101578.25;;;7.29;79.23
60371;BME280;48550;40.588;49.684;2024-03-06T00:39:09;101565.81;;;7.33;79.19
60371;BME280;48550;40.588;49.684;2024-03-06T00:41:35;101554.22;;;7.37;79.07
60371;BME280;48550;40.588;49.684;2024-03-06T00:44:01;101559.88;;;7.29;79.63
60371;BME280;48550;40.588;49.684;2024-03-06T00:46:27;101563.19;;;7.33;79.16
60371;BME280;48550;40.588;49.684;2024-03-06T00:48:53;101566.91;;;7.29;79.46
60371;BME280;48550;40.588;49.684;2024-03-06T00:51:19;101561.81;;;7.25;79.06
60371;BME280;48550;40.588;49.684;2024-03-06T00:53:45;101561.97;;;7.22;79.07
60371;BME280;48550;40.588;49.684;2024-03-06T00:56:11;101559.09;;;7.27;78.76
60371;BME280;48550;40.588;49.684;2024-03-06T00:58:37;101558.63;;;7.19;79.46
60371;BME280;48550;40.588;49.684;2024-03-06T01:01:02;101565.81;;;7.33;79.09
60371;BME280;48550;40.588;49.684;2024-03-06T01:03:28;101563.09;;;7.34;78.80
60371;BME280;48550;40.588;49.684;2024-03-06T01:05:54;101568.66;;;7.28;79.25
60371;BME280;48550;40.588;49.684;2024-03-06T01:08:23;101561.66;;;7.29;78.98
60371;BME280;48550;40.588;49.684;2024-03-06T01:10:51;101552.00;;;7.29;79.02
60371;BME280;48550;40.588;49.684;2024-03-06T01:13:18;101546.06;;;7.25;79.19
60371;BME280;48550;40.588;49.684;2024-03-06T01:15:44;101547.03;;;7.23;79.73
60371;BME280;48550;40.588;49.684;2024-03-06T01:18:09;101547.03;;;7.23;79.88
60371;BME280;48550;40.588;49.684;2024-03-06T01:20:35;101543.09;;;7.14;79.74
60371;BME280;48550;40.588;49.684;2024-03-06T01:23:01;101547.66;;;7.11;80.13
60371;BME280;48550;40.588;49.684;2024-03-06T01:25:28;101539.09;;;7.07;80.10
60371;BME280;48550;40.588;49.684;2024-03-06T01:27:54;101544.50;;;7.21;79.88
60371;BME280;48550;40.588;49.684;2024-03-06T01:30:19;101536.38;;;7.26;79.16
60371;BME280;48550;40.588;49.684;2024-03-06T01:32:45;101536.22;;;7.29;79.63
60371;BME280;48550;40.588;49.684;2024-03-06T01:35:11;101537.69;;;7.35;79.52
60371;BME280;48550;40.588;49.684;2024-03-06T01:37:37;101532.50;;;7.33;79.23
60371;BME280;48550;40.588;49.684;2024-03-06T01:40:03;101543.56;;;7.40;79.43
60371;BME280;48550;40.588;49.684;2024-03-06T01:42:30;101531.19;;;7.42;79.37
60371;BME280;48550;40.588;49.684;2024-03-06T01:44:56;101527.84;;;7.56;79.03
60371;BME280;48550;40.588;49.684;2024-03-06T01:47:22;101531.16;;;7.59;78.62
60371;BME280;48550;40.588;49.684;2024-03-06T01:49:48;101525.00;;;7.60;78.38
60371;BME280;48550;40.588;49.684;2024-03-06T01:52:14;101542.16;;;7.50;78.75
60371;BME280;48550;40.588;49.684;2024-03-06T01:54:43;101537.50;;;7.55;78.85
60371;BME280;48550;40.588;49.684;2024-03-06T01:57:10;101532.09;;;7.58;79.03
60371;BME280;48550;40.588;49.684;2024-03-06T01:59:39;101524.16;;;7.76;77.59
60371;BME280;48550;40.588;49.684;2024-03-06T02:02:05;101516.03;;;7.80;77.68
60371;BME280;48550;40.588;49.684;2024-03-06T02:04:33;101526.63;;;7.79;77.46
60371;BME280;48550;40.588;49.684;2024-03-06T02:06:59;101533.03;;;7.91;77.32
60371;BME280;48550;40.588;49.684;2024-03-06T02:09:25;101528.94;;;7.85;77.64
60371;BME280;48550;40.588;49.684;2024-03-06T02:11:50;101529.53;;;7.90;77.17
60371;BME280;48550;40.588;49.684;2024-03-06T02:14:16;101537.56;;;7.87;77.42
60371;BME280;48550;40.588;49.684;2024-03-06T02:16:42;101528.59;;;7.91;76.90
60371;BME280;48550;40.588;49.684;2024-03-06T02:19:08;101528.00;;;7.86;77.12
60371;BME280;48550;40.588;49.684;2024-03-06T02:21:34;101535.31;;;7.81;77.37
60371;BME280;48550;40.588;49.684;2024-03-06T02:24:00;101532.69;;;7.81;77.57
60371;BME280;48550;40.588;49.684;2024-03-06T02:26:26;101534.06;;;7.71;77.90
60371;BME280;48550;40.588;49.684;2024-03-06T02:28:55;101529.75;;;7.70;78.10
60371;BME280;48550;40.588;49.684;2024-03-06T02:31:22;101528.25;;;7.81;78.15
60371;BME280;48550;40.588;49.684;2024-03-06T02:33:49;101529.41;;;7.76;78.09
60371;BME280;48550;40.588;49.684;2024-03-06T02:36:18;101524.59;;;7.84;78.11
60371;BME280;48550;40.588;49.684;2024-03-06T02:38:45;101532.00;;;7.93;77.58
60371;BME280;48550;40.588;49.684;2024-03-06T02:41:11;101529.88;;;8.00;77.46
60371;BME280;48550;40.588;49.684;2024-03-06T02:43:39;101541.00;;;7.89;77.73
60371;BME280;48550;40.588;49.684;2024-03-06T02:46:05;101535.75;;;7.89;77.96
60371;BME280;48550;40.588;49.684;2024-03-06T02:48:31;101540.28;;;7.86;77.97
60371;BME280;48550;40.588;49.684;2024-03-06T02:50:57;101540.44;;;7.82;78.20
60371;BME280;48550;40.588;49.684;2024-03-06T02:53:23;101533.59;;;7.80;78.45
60371;BME280;48550;40.588;49.684;2024-03-06T02:55:50;101533.50;;;7.81;78.50
60371;BME280;48550;40.588;49.684;2024-03-06T02:58:16;101545.72;;;7.82;78.18
60371;BME280;48550;40.588;49.684;2024-03-06T03:00:43;101540.00;;;7.74;78.49
60371;BME280;48550;40.588;49.684;2024-03-06T03:03:09;101536.53;;;7.74;78.72
60371;BME280;48550;40.588;49.684;2024-03-06T03:05:38;101541.97;;;7.71;78.69
60371;BME280;48550;40.588;49.684;2024-03-06T03:08:05;101543.84;;;7.69;78.70
60371;BME280;48550;40.588;49.684;2024-03-06T03:10:31;101549.84;;;7.71;79.01
60371;BME280;48550;40.588;49.684;2024-03-06T03:12:57;101543.91;;;7.67;78.88
60371;BME280;48550;40.588;49.684;2024-03-06T03:15:22;101546.94;;;7.59;79.05
60371;BME280;48550;40.588;49.684;2024-03-06T03:17:48;101550.56;;;7.57;79.10
60371;BME280;48550;40.588;49.684;2024-03-06T03:20:14;101549.25;;;7.66;79.41
60371;BME280;48550;40.588;49.684;2024-03-06T03:22:42;101552.06;;;8.28;76.55
60371;BME280;48550;40.588;49.684;2024-03-06T03:25:12;101556.81;;;8.21;76.77
60371;BME280;48550;40.588;49.684;2024-03-06T03:27:39;101547.47;;;8.15;77.07
60371;BME280;48550;40.588;49.684;2024-03-06T03:30:10;101556.81;;;8.05;77.55
60371;BME280;48550;40.588;49.684;2024-03-06T03:32:36;101556.38;;;7.97;77.87
60371;BME280;48550;40.588;49.684;2024-03-06T03:35:06;101557.16;;;8.15;77.47
60371;BME280;48550;40.588;49.684;2024-03-06T03:37:32;101560.44;;;8.18;77.55
60371;BME280;48550;40.588;49.684;2024-03-06T03:39:58;101554.63;;;8.29;77.34
60371;BME280;48550;40.588;49.684;2024-03-06T03:42:24;101551.19;;;8.45;76.93
60371;BME280;48550;40.588;49.684;2024-03-06T03:44:49;101553.88;;;8.59;75.96
60371;BME280;48550;40.588;49.684;2024-03-06T03:47:15;101555.22;;;8.66;75.63
60371;BME280;48550;40.588;49.684;2024-03-06T03:49:41;101552.25;;;8.73;75.55
60371;BME280;48550;40.588;49.684;2024-03-06T03:52:08;101557.09;;;8.80;75.13
60371;BME280;48550;40.588;49.684;2024-03-06T03:54:33;101561.66;;;8.93;74.82
60371;BME280;48550;40.588;49.684;2024-03-06T03:56:59;101549.00;;;9.14;74.52
60371;BME280;48550;40.588;49.684;2024-03-06T03:59:25;101556.25;;;9.10;74.14
60371;BME280;48550;40.588;49.684;2024-03-06T04:01:51;101560.00;;;9.51;73.37
60371;BME280;48550;40.588;49.684;2024-03-06T04:04:17;101565.75;;;9.57;72.58
60371;BME280;48550;40.588;49.684;2024-03-06T04:06:43;101559.81;;;9.54;72.44
60371;BME280;48550;40.588;49.684;2024-03-06T04:09:09;101552.22;;;9.78;72.25
60371;BME280;48550;40.588;49.684;2024-03-06T04:11:40;101549.28;;;9.97;71.55
60371;BME280;48550;40.588;49.684;2024-03-06T04:14:06;101552.97;;;10.09;71.04
60371;BME280;48550;40.588;49.684;2024-03-06T04:16:34;101553.63;;;10.12;70.36
60371;BME280;48550;40.588;49.684;2024-03-06T04:19:00;101554.34;;;10.14;70.27
60371;BME280;48550;40.588;49.684;2024-03-06T04:21:26;101560.22;;;9.76;71.80
60371;BME280;48550;40.588;49.684;2024-03-06T04:23:52;101553.88;;;9.50;72.28
60371;BME280;48550;40.588;49.684;2024-03-06T04:26:18;101558.59;;;9.45;72.65
60371;BME280;48550;40.588;49.684;2024-03-06T04:28:44;101564.81;;;9.58;73.25
60371;BME280;48550;40.588;49.684;2024-03-06T04:31:10;101562.66;;;9.65;71.82
60371;BME280;48550;40.588;49.684;2024-03-06T04:33:36;101563.13;;;9.57;72.12
60371;BME280;48550;40.588;49.684;2024-03-06T04:36:03;101570.56;;;9.65;72.52
60371;BME280;48550;40.588;49.684;2024-03-06T04:38:29;101570.56;;;9.65;72.45
60371;BME280;48550;40.588;49.684;2024-03-06T04:40:55;101566.25;;;9.64;72.23
60371;BME280;48550;40.588;49.684;2024-03-06T04:43:20;101568.53;;;9.85;72.29
60371;BME280;48550;40.588;49.684;2024-03-06T04:45:46;101567.94;;;10.08;71.40
60371;BME280;48550;40.588;49.684;2024-03-06T04:48:12;101574.53;;;10.01;71.79
60371;BME280;48550;40.588;49.684;2024-03-06T04:50:38;101572.38;;;9.93;71.84
60371;BME280;48550;40.588;49.684;2024-03-06T04:53:03;101566.25;;;9.93;71.90
60371;BME280;48550;40.588;49.684;2024-03-06T04:55:29;101564.75;;;9.89;72.21
60371;BME280;48550;40.588;49.684;2024-03-06T04:57:56;101556.19;;;9.85;72.72
60371;BME280;48550;40.588;49.684;2024-03-06T05:00:22;101564.00;;;10.01;72.59
60371;BME280;48550;40.588;49.684;2024-03-06T05:02:48;101564.56;;;9.92;72.37
60371;BME280;48550;40.588;49.684;2024-03-06T05:05:16;101560.03;;;9.94;72.32
60371;BME280;48550;40.588;49.684;2024-03-06T05:07:42;101554.34;;;10.14;71.56
60371;BME280;48550;40.588;49.684;2024-03-06T05:10:09;101541.84;;;10.32;71.19
60371;BME280;48550;40.588;49.684;2024-03-06T05:12:34;101550.00;;;10.28;70.88
60371;BME280;48550;40.588;49.684;2024-03-06T05:15:00;101549.06;;;10.43;70.45
60371;BME280;48550;40.588;49.684;2024-03-06T05:17:26;101541.31;;;10.40;70.58
60371;BME280;48550;40.588;49.684;2024-03-06T05:19:52;101536.63;;;10.45;70.21
60371;BME280;48550;40.588;49.684;2024-03-06T05:22:17;101545.97;;;10.64;70.03
60371;BME280;48550;40.588;49.684;2024-03-06T05:24:43;101540.69;;;10.64;69.50
60371;BME280;48550;40.588;49.684;2024-03-06T05:27:10;101528.94;;;10.82;68.54
60371;BME280;48550;40.588;49.684;2024-03-06T05:29:39;101522.53;;;10.72;68.95
60371;BME280;48550;40.588;49.684;2024-03-06T05:32:05;101518.81;;;11.02;68.29
60371;BME280;48550;40.588;49.684;2024-03-06T05:34:33;101525.44;;;11.60;66.31
60371;BME280;48550;40.588;49.684;2024-03-06T05:37:01;101511.28;;;12.24;65.14
60371;BME280;48550;40.588;49.684;2024-03-06T05:39:30;101514.34;;;12.79;62.19
60371;BME280;48550;40.588;49.684;2024-03-06T05:42:05;101519.50;;;13.86;58.80
60371;BME280;48550;40.588;49.684;2024-03-06T05:44:32;101502.81;;;14.18;57.88
60371;BME280;48550;40.588;49.684;2024-03-06T05:47:02;101508.38;;;13.81;59.01
60371;BME280;48550;40.588;49.684;2024-03-06T05:49:29;101499.44;;;13.01;60.73
60371;BME280;48550;40.588;49.684;2024-03-06T05:51:55;101497.28;;;13.53;59.35
60371;BME280;48550;40.588;49.684;2024-03-06T05:54:21;101499.97;;;14.74;55.80
60371;BME280;48550;40.588;49.684;2024-03-06T05:56:50;101485.03;;;16.18;52.04
60371;BME280;48550;40.588;49.684;2024-03-06T05:59:17;101485.34;;;16.34;51.42
60371;BME280;48550;40.588;49.684;2024-03-06T06:01:43;101481.72;;;16.64;50.32
60371;BME280;48550;40.588;49.684;2024-03-06T06:04:10;101481.00;;;16.33;50.57
60371;BME280;48550;40.588;49.684;2024-03-06T06:06:36;101494.31;;;17.11;48.81
60371;BME280;48550;40.588;49.684;2024-03-06T06:09:04;101492.00;;;15.89;51.59
60371;BME280;48550;40.588;49.684;2024-03-06T06:11:31;101493.41;;;16.03;51.70
60371;BME280;48550;40.588;49.684;2024-03-06T06:13:57;101483.91;;;16.20;51.04
60371;BME280;48550;40.588;49.684;2024-03-06T06:16:22;101485.09;;;16.86;49.75
60371;BME280;48550;40.588;49.684;2024-03-06T06:18:48;101475.75;;;17.19;48.36
60371;BME280;48550;40.588;49.684;2024-03-06T06:21:14;101459.53;;;18.06;46.57
60371;BME280;48550;40.588;49.684;2024-03-06T06:23:41;101464.47;;;17.73;47.83
60371;BME280;48550;40.588;49.684;2024-03-06T06:26:08;101448.44;;;17.73;47.11
60371;BME280;48550;40.588;49.684;2024-03-06T06:28:36;101458.50;;;18.35;45.56
60371;BME280;48550;40.588;49.684;2024-03-06T06:31:03;101456.66;;;17.89;46.01
60371;BME280;48550;40.588;49.684;2024-03-06T06:33:30;101461.47;;;18.67;44.31
60371;BME280;48550;40.588;49.684;2024-03-06T06:35:55;101452.38;;;18.60;43.88
60371;BME280;48550;40.588;49.684;2024-03-06T06:38:21;101450.50;;;18.07;45.29
60371;BME280;48550;40.588;49.684;2024-03-06T06:40:47;101452.66;;;18.21;45.43
60371;BME280;48550;40.588;49.684;2024-03-06T06:43:13;101433.66;;;18.24;45.02
60371;BME280;48550;40.588;49.684;2024-03-06T06:45:39;101443.31;;;19.24;42.73
60371;BME280;48550;40.588;49.684;2024-03-06T06:48:06;101438.16;;;20.24;40.94
60371;BME280;48550;40.588;49.684;2024-03-06T06:50:32;101429.25;;;20.23;40.81
60371;BME280;48550;40.588;49.684;2024-03-06T06:52:59;101426.22;;;20.02;41.70
60371;BME280;48550;40.588;49.684;2024-03-06T06:55:25;101429.88;;;19.92;41.98
60371;BME280;48550;40.588;49.684;2024-03-06T06:57:51;101417.06;;;19.27;43.06
60371;BME280;48550;40.588;49.684;2024-03-06T07:00:17;101421.38;;;21.04;39.73
60371;BME280;48550;40.588;49.684;2024-03-06T07:02:44;101412.19;;;20.16;40.87
60371;BME280;48550;40.588;49.684;2024-03-06T07:05:11;101410.38;;;21.38;39.04
60371;BME280;48550;40.588;49.684;2024-03-06T07:07:37;101394.22;;;20.08;41.21
60371;BME280;48550;40.588;49.684;2024-03-06T07:10:04;101395.13;;;20.67;39.85
60371;BME280;48550;40.588;49.684;2024-03-06T07:12:30;101397.63;;;20.76;39.82
60371;BME280;48550;40.588;49.684;2024-03-06T07:14:56;101385.88;;;20.69;39.87
60371;BME280;48550;40.588;49.684;2024-03-06T07:17:22;101396.47;;;19.70;41.23
60371;BME280;48550;40.588;49.684;2024-03-06T07:19:48;101373.59;;;19.84;41.88
60371;BME280;48550;40.588;49.684;2024-03-06T07:22:14;101383.00;;;20.21;40.81
60371;BME280;48550;40.588;49.684;2024-03-06T07:24:40;101377.72;;;19.28;42.53
60371;BME280;48550;40.588;49.684;2024-03-06T07:27:07;101388.31;;;17.41;46.46
60371;BME280;48550;40.588;49.684;2024-03-06T07:29:34;101372.28;;;16.56;48.26
60371;BME280;48550;40.588;49.684;2024-03-06T07:32:01;101379.06;;;15.20;52.02
60371;BME280;48550;40.588;49.684;2024-03-06T07:34:26;101379.84;;;14.80;53.62
60371;BME280;48550;40.588;49.684;2024-03-06T07:36:52;101370.94;;;14.49;54.49
60371;BME280;48550;40.588;49.684;2024-03-06T07:39:21;101377.19;;;14.27;54.74
60371;BME280;48550;40.588;49.684;2024-03-06T07:41:47;101372.59;;;14.61;54.30
60371;BME280;48550;40.588;49.684;2024-03-06T07:44:13;101368.94;;;14.41;55.37
60371;BME280;48550;40.588;49.684;2024-03-06T07:46:39;101372.81;;;14.58;54.88
60371;BME280;48550;40.588;49.684;2024-03-06T07:49:05;101340.31;;;14.66;54.65
60371;BME280;48550;40.588;49.684;2024-03-06T07:51:31;101348.34;;;14.76;54.19
60371;BME280;48550;40.588;49.684;2024-03-06T07:53:57;101343.47;;;14.81;54.30
60371;BME280;48550;40.588;49.684;2024-03-06T07:56:26;101351.13;;;14.74;54.34
60371;BME280;48550;40.588;49.684;2024-03-06T07:58:52;101341.88;;;14.68;54.76
60371;BME280;48550;40.588;49.684;2024-03-06T08:01:22;101350.88;;;14.77;55.15
60371;BME280;48550;40.588;49.684;2024-03-06T08:03:48;101330.38;;;14.68;55.47
60371;BME280;48550;40.588;49.684;2024-03-06T08:06:13;101345.63;;;14.97;54.31
60371;BME280;48550;40.588;49.684;2024-03-06T08:08:43;101343.94;;;14.86;54.43
60371;BME280;48550;40.588;49.684;2024-03-06T08:11:13;101341.53;;;14.62;55.42
60371;BME280;48550;40.588;49.684;2024-03-06T08:13:39;101339.63;;;14.31;56.48
60371;BME280;48550;40.588;49.684;2024-03-06T08:16:08;101336.78;;;14.44;56.36
60371;BME280;48550;40.588;49.684;2024-03-06T08:18:34;101329.69;;;14.12;57.79
60371;BME280;48550;40.588;49.684;2024-03-06T08:21:01;101323.66;;;13.89;58.23
60371;BME280;48550;40.588;49.684;2024-03-06T08:23:27;101333.38;;;14.00;58.77
60371;BME280;48550;40.588;49.684;2024-03-06T08:25:53;101333.91;;;13.94;58.06
60371;BME280;48550;40.588;49.684;2024-03-06T08:28:19;101324.31;;;14.03;57.97
60371;BME280;48550;40.588;49.684;2024-03-06T08:30:44;101330.53;;;13.92;57.85
60371;BME280;48550;40.588;49.684;2024-03-06T08:33:11;101320.50;;;13.95;58.23
60371;BME280;48550;40.588;49.684;2024-03-06T08:35:37;101319.94;;;14.34;56.73
60371;BME280;48550;40.588;49.684;2024-03-06T08:38:03;101321.63;;;14.77;56.25
60371;BME280;48550;40.588;49.684;2024-03-06T08:40:29;101305.97;;;15.15;54.69
60371;BME280;48550;40.588;49.684;2024-03-06T08:42:55;101314.91;;;14.73;55.39
60371;BME280;48550;40.588;49.684;2024-03-06T08:45:22;101306.94;;;14.73;56.03
60371;BME280;48550;40.588;49.684;2024-03-06T08:47:50;101293.63;;;15.04;55.10
60371;BME280;48550;40.588;49.684;2024-03-06T08:50:19;101301.38;;;15.27;54.16
60371;BME280;48550;40.588;49.684;2024-03-06T08:52:45;101295.19;;;15.07;54.05
60371;BME280;48550;40.588;49.684;2024-03-06T08:55:11;101288.19;;;14.75;54.94
60371;BME280;48550;40.588;49.684;2024-03-06T08:57:37;101290.22;;;14.40;55.42
60371;BME280;48550;40.588;49.684;2024-03-06T09:00:08;101295.72;;;14.27;55.94
60371;BME280;48550;40.588;49.684;2024-03-06T09:02:36;101280.50;;;14.08;56.66
60371;BME280;48550;40.588;49.684;2024-03-06T09:05:12;101282.19;;;14.09;56.73
60371;BME280;48550;40.588;49.684;2024-03-06T09:07:39;101267.78;;;14.33;56.60
60371;BME280;48550;40.588;49.684;2024-03-06T09:10:12;101262.28;;;14.25;56.55
60371;BME280;48550;40.588;49.684;2024-03-06T09:12:38;101273.53;;;13.96;57.65
60371;BME280;48550;40.588;49.684;2024-03-06T09:15:05;101264.50;;;13.99;58.45
60371;BME280;48550;40.588;49.684;2024-03-06T09:17:34;101250.16;;;13.90;59.01
60371;BME280;48550;40.588;49.684;2024-03-06T09:20:00;101252.13;;;13.88;59.32
60371;BME280;48550;40.588;49.684;2024-03-06T09:22:38;101244.09;;;13.99;58.84
60371;BME280;48550;40.588;49.684;2024-03-06T09:25:05;101221.75;;;14.02;58.84
60371;BME280;48550;40.588;49.684;2024-03-06T09:27:31;101215.22;;;13.85;59.40
60371;BME280;48550;40.588;49.684;2024-03-06T09:29:57;101210.16;;;13.82;59.32
60371;BME280;48550;40.588;49.684;2024-03-06T09:32:23;101218.03;;;13.72;59.58
60371;BME280;48550;40.588;49.684;2024-03-06T09:34:52;101218.75;;;13.95;59.74
60371;BME280;48550;40.588;49.684;2024-03-06T09:37:18;101221.91;;;14.31;58.50
60371;BME280;48550;40.588;49.684;2024-03-06T09:39:44;101225.19;;;14.13;59.36
60371;BME280;48550;40.588;49.684;2024-03-06T09:42:14;101200.25;;;14.05;58.71
60371;BME280;48550;40.588;49.684;2024-03-06T09:44:40;101211.28;;;14.31;57.68
60371;BME280;48550;40.588;49.684;2024-03-06T09:47:06;101205.66;;;14.76;56.47
60371;BME280;48550;40.588;49.684;2024-03-06T09:49:32;101207.28;;;14.67;55.78
60371;BME280;48550;40.588;49.684;2024-03-06T09:52:00;101207.50;;;14.85;55.58
60371;BME280;48550;40.588;49.684;2024-03-06T09:54:29;101208.66;;;14.62;56.29
60371;BME280;48550;40.588;49.684;2024-03-06T09:56:55;101207.19;;;14.79;56.06
60371;BME280;48550;40.588;49.684;2024-03-06T09:59:22;101199.19;;;14.69;55.81
60371;BME280;48550;40.588;49.684;2024-03-06T10:01:54;101198.22;;;14.70;54.67
60371;BME280;48550;40.588;49.684;2024-03-06T10:04:21;101192.09;;;14.48;54.52
60371;BME280;48550;40.588;49.684;2024-03-06T10:06:48;101192.78;;;14.20;55.15
60371;BME280;48550;40.588;49.684;2024-03-06T10:09:18;101200.31;;;14.14;55.43
60371;BME280;48550;40.588;49.684;2024-03-06T10:11:44;101188.53;;;14.07;55.59
60371;BME280;48550;40.588;49.684;2024-03-06T10:14:11;101188.25;;;14.10;55.16
60371;BME280;48550;40.588;49.684;2024-03-06T10:16:37;101180.25;;;14.31;54.72
60371;BME280;48550;40.588;49.684;2024-03-06T10:19:16;101172.81;;;14.56;54.43
60371;BME280;48550;40.588;49.684;2024-03-06T10:21:48;101182.25;;;14.39;55.63
60371;BME280;48550;40.588;49.684;2024-03-06T10:24:21;101178.69;;;13.77;57.54
60371;BME280;48550;40.588;49.684;2024-03-06T10:26:49;101173.13;;;13.80;57.80
60371;BME280;48550;40.588;49.684;2024-03-06T10:29:18;101176.75;;;14.00;57.46
60371;BME280;48550;40.588;49.684;2024-03-06T10:31:49;101182.72;;;13.92;57.69
60371;BME280;48550;40.588;49.684;2024-03-06T10:34:16;101175.00;;;13.68;57.81
60371;BME280;48550;40.588;49.684;2024-03-06T10:36:42;101176.16;;;13.75;57.71
60371;BME280;48550;40.588;49.684;2024-03-06T10:39:11;101160.16;;;13.87;57.33
60371;BME280;48550;40.588;49.684;2024-03-06T10:41:38;101168.78;;;13.79;57.71
60371;BME280;48550;40.588;49.684;2024-03-06T10:44:11;101161.28;;;13.84;57.38
60371;BME280;48550;40.588;49.684;2024-03-06T10:46:43;101156.56;;;13.88;56.94
60371;BME280;48550;40.588;49.684;2024-03-06T10:49:12;101146.63;;;13.90;57.26
60371;BME280;48550;40.588;49.684;2024-03-06T10:51:44;101164.31;;;14.01;57.12
60371;BME280;48550;40.588;49.684;2024-03-06T10:54:13;101151.00;;;14.22;56.70
60371;BME280;48550;40.588;49.684;2024-03-06T10:56:40;101155.59;;;14.20;56.74
60371;BME280;48550;40.588;49.684;2024-03-06T10:59:11;101143.56;;;14.46;56.68
60371;BME280;48550;40.588;49.684;2024-03-06T11:01:40;101156.50;;;14.61;55.75
60371;BME280;48550;40.588;49.684;2024-03-06T11:04:09;101157.53;;;14.79;55.35
60371;BME280;48550;40.588;49.684;2024-03-06T11:06:37;101163.31;;;15.04;55.78
60371;BME280;48550;40.588;49.684;2024-03-06T11:09:03;101175.38;;;15.08;55.00
60371;BME280;48550;40.588;49.684;2024-03-06T11:11:29;101185.03;;;15.19;54.48
60371;BME280;48550;40.588;49.684;2024-03-06T11:14:06;101186.16;;;15.16;53.87
60371;BME280;48550;40.588;49.684;2024-03-06T11:17:03;101206.84;;;15.03;53.85
60371;BME280;48550;40.588;49.684;2024-03-06T11:19:30;101214.03;;;14.20;55.76
60371;BME280;48550;40.588;49.684;2024-03-06T11:21:56;101215.06;;;13.65;57.35
60371;BME280;48550;40.588;49.684;2024-03-06T11:24:32;101215.38;;;13.51;58.65
60371;BME280;48550;40.588;49.684;2024-03-06T11:27:02;101209.13;;;13.29;58.84
60371;BME280;48550;40.588;49.684;2024-03-06T11:30:03;101209.22;;;12.95;59.08
60371;BME280;48550;40.588;49.684;2024-03-06T11:32:36;101199.72;;;12.59;60.17
60371;BME280;48550;40.588;49.684;2024-03-06T11:35:03;101218.09;;;12.26;61.01
60371;BME280;48550;40.588;49.684;2024-03-06T11:37:34;101233.25;;;12.02;61.79
60371;BME280;48550;40.588;49.684;2024-03-06T11:40:00;101226.41;;;11.86;62.18
60371;BME280;48550;40.588;49.684;2024-03-06T11:42:34;101229.03;;;11.75;62.81
60371;BME280;48550;40.588;49.684;2024-03-06T11:45:13;101231.13;;;11.58;63.46
60371;BME280;48550;40.588;49.684;2024-03-06T11:48:00;101234.63;;;11.35;63.99
60371;BME280;48550;40.588;49.684;2024-03-06T11:50:27;101236.06;;;11.39;64.61
60371;BME280;48550;40.588;49.684;2024-03-06T11:52:55;101227.75;;;11.32;64.48
60371;BME280;48550;40.588;49.684;2024-03-06T11:55:22;101234.63;;;11.35;64.19
60371;BME280;48550;40.588;49.684;2024-03-06T11:57:48;101238.31;;;11.08;64.90
60371;BME280;48550;40.588;49.684;2024-03-06T12:00:13;101242.13;;;10.91;65.03
60371;BME280;48550;40.588;49.684;2024-03-06T12:02:40;101243.72;;;10.94;65.27
60371;BME280;48550;40.588;49.684;2024-03-06T12:05:07;101248.59;;;10.87;65.70
60371;BME280;48550;40.588;49.684;2024-03-06T12:07:55;101234.84;;;10.95;65.25
60371;BME280;48550;40.588;49.684;2024-03-06T12:10:21;101240.03;;;10.96;65.34
60371;BME280;48550;40.588;49.684;2024-03-06T12:12:48;101247.09;;;10.96;64.93
60371;BME280;48550;40.588;49.684;2024-03-06T12:15:14;101255.19;;;11.18;64.52
60371;BME280;48550;40.588;49.684;2024-03-06T12:17:50;101249.66;;;11.34;64.75
60371;BME280;48550;40.588;49.684;2024-03-06T12:20:18;101250.97;;;11.40;63.87
60371;BME280;48550;40.588;49.684;2024-03-06T12:22:53;101250.75;;;11.43;64.28
60371;BME280;48550;40.588;49.684;2024-03-06T12:25:22;101243.06;;;11.40;64.34
60371;BME280;48550;40.588;49.684;2024-03-06T12:27:49;101254.66;;;11.50;64.11
60371;BME280;48550;40.588;49.684;2024-03-06T12:30:22;101248.41;;;11.51;64.12
60371;BME280;48550;40.588;49.684;2024-03-06T12:33:01;101244.75;;;11.41;64.95
60371;BME280;48550;40.588;49.684;2024-03-06T12:35:31;101246.03;;;10.98;66.15
60371;BME280;48550;40.588;49.684;2024-03-06T12:37:57;101255.34;;;10.91;66.85
60371;BME280;48550;40.588;49.684;2024-03-06T12:40:24;101249.44;;;10.87;67.34
60371;BME280;48550;40.588;49.684;2024-03-06T12:42:49;101246.22;;;10.58;67.93